Waterville, Canada
Current Conditions -  °F | °C
As of 8:00 PM on Monday 20 Oct 2014 (Local Time) from CYSC Reporting Station
Overcast Overcast  
Wind Chill: 41°   Ceiling: 3500
Heat Index: 41°   Visibility: 9mi
Dew Point: 36°   Wind: 2mph
Humidity: 81%   Direction: 300°WNW
Pressure: 29.95"   Gusts: NA
Location:  45.28°N, 71.88°W
Report Text: CYSC 210000Z AUTO 30002KT 9SM OVC035 05/02 A2995 RMK TS/LTNG TEMPO UNAVBL SLP151
Loading
Personal Weather Stations






























Interactive Weather Map
Tropical Storm Tracking
New forecast layout! Learn more

10-Day Weather Forecast

Advertisements
Track Severe Weather on mobile